createdAt,value
2019-02-06T00:00:35.040Z,24.9
2019-02-06T00:01:18.498Z,24.9
2019-02-06T00:02:08.000Z,24.8
2019-02-06T00:03:01.670Z,24.8
2019-02-06T00:03:48.390Z,24.7
2019-02-06T00:04:38.980Z,24.7
2019-02-06T00:05:28.537Z,24.6
2019-02-06T00:06:18.336Z,24.5
2019-02-06T00:07:08.435Z,24.4
2019-02-06T00:07:58.547Z,24.4
2019-02-06T00:08:51.067Z,24.3
2019-02-06T00:09:38.812Z,24.3
2019-02-06T00:10:29.354Z,24.3
2019-02-06T00:11:18.669Z,24.3
2019-02-06T00:12:08.650Z,24.4
2019-02-06T00:12:59.427Z,24.4
2019-02-06T00:13:49.407Z,24.4
2019-02-06T00:14:40.654Z,24.5
2019-02-06T00:15:28.505Z,24.6
2019-02-06T00:16:19.807Z,24.8
2019-02-06T00:17:08.749Z,24.9
2019-02-06T00:18:01.522Z,25
2019-02-06T00:18:49.376Z,25.2
2019-02-06T00:19:38.292Z,25.3
2019-02-06T00:20:29.882Z,25.4
2019-02-06T00:21:23.198Z,25.3
2019-02-06T00:22:09.331Z,25.3
2019-02-06T00:22:59.219Z,25.2
2019-02-06T00:23:52.544Z,25.1
2019-02-06T00:24:40.558Z,25
2019-02-06T00:25:29.286Z,24.9
2019-02-06T00:26:19.603Z,24.9
2019-02-06T00:27:10.051Z,24.8
2019-02-06T00:28:00.038Z,24.8
2019-02-06T00:28:49.548Z,24.7
2019-02-06T00:29:40.491Z,24.7
2019-02-06T00:30:29.926Z,24.6
2019-02-06T00:31:20.331Z,24.5
2019-02-06T00:32:10.441Z,24.4
2019-02-06T00:33:02.602Z,24.4
2019-02-06T00:33:50.783Z,24.3
2019-02-06T00:34:40.268Z,24.4
2019-02-06T00:35:33.054Z,24.4
2019-02-06T00:36:22.135Z,24.4
2019-02-06T00:37:10.584Z,24.4
2019-02-06T00:38:01.040Z,24.4
2019-02-06T00:38:50.800Z,24.5
2019-02-06T00:39:40.626Z,24.6
2019-02-06T00:40:31.450Z,24.6
2019-02-06T00:41:20.386Z,24.8
2019-02-06T00:42:13.567Z,24.9
2019-02-06T00:43:00.545Z,25.1
2019-02-06T00:43:50.833Z,25.2
2019-02-06T00:44:41.313Z,25.3
2019-02-06T00:45:32.125Z,25.4
2019-02-06T00:46:21.562Z,25.4
2019-02-06T00:47:11.941Z,25.3
2019-02-06T00:48:01.011Z,25.2
2019-02-06T00:48:51.525Z,25.1
2019-02-06T00:49:41.550Z,25
2019-02-06T00:50:31.377Z,24.9
2019-02-06T00:51:23.915Z,24.9
2019-02-06T00:52:11.548Z,24.8
2019-02-06T00:53:02.059Z,24.8
2019-02-06T00:53:51.833Z,24.8
2019-02-06T00:54:42.437Z,24.6
2019-02-06T00:55:32.090Z,24.6
2019-02-06T00:56:22.024Z,24.5
2019-02-06T00:57:13.064Z,24.4
2019-02-06T00:58:01.680Z,24.4
2019-02-06T00:58:52.199Z,24.4
2019-02-06T00:59:41.499Z,24.4
2019-02-06T01:00:34.937Z,24.4
2019-02-06T01:01:22.651Z,24.4
2019-02-06T01:02:12.796Z,24.4
2019-02-06T01:03:02.609Z,24.5
2019-02-06T01:03:52.684Z,24.6
2019-02-06T01:04:42.303Z,24.7
2019-02-06T01:05:45.408Z,24.8
2019-02-06T01:06:24.571Z,24.9
2019-02-06T01:07:12.926Z,25.1
2019-02-06T01:08:02.281Z,25.2
2019-02-06T01:08:53.459Z,25.3
2019-02-06T01:09:45.252Z,25.4
2019-02-06T01:10:33.079Z,25.4
2019-02-06T01:11:22.521Z,25.3
2019-02-06T01:12:12.696Z,25.2
2019-02-06T01:13:03.243Z,25.1
2019-02-06T01:13:52.823Z,25.1
2019-02-06T01:14:43.138Z,24.9
2019-02-06T01:15:35.340Z,24.9
2019-02-06T01:16:23.469Z,24.9
2019-02-06T01:17:13.195Z,24.8
2019-02-06T01:18:03.625Z,24.8
2019-02-06T01:18:54.061Z,24.7
2019-02-06T01:19:44.096Z,24.6
2019-02-06T01:20:33.440Z,24.6
2019-02-06T01:21:24.216Z,24.5
2019-02-06T01:22:13.435Z,24.4
2019-02-06T01:23:03.113Z,24.3
2019-02-06T01:23:54.573Z,24.4
2019-02-06T01:24:46.613Z,24.4
2019-02-06T01:25:33.312Z,24.4
2019-02-06T01:26:24.261Z,24.4
2019-02-06T01:27:14.312Z,24.5
2019-02-06T01:28:04.475Z,24.6
2019-02-06T01:28:54.567Z,24.7
2019-02-06T01:29:44.152Z,24.8
2019-02-06T01:30:35.986Z,24.9
2019-02-06T01:31:24.762Z,25
2019-02-06T01:32:14.566Z,25.1
2019-02-06T01:33:04.387Z,25.3
2019-02-06T01:33:55.639Z,25.4
2019-02-06T01:34:45.057Z,25.4
2019-02-06T01:35:34.668Z,25.4
2019-02-06T01:36:25.138Z,25.3
2019-02-06T01:37:15.024Z,25.2
2019-02-06T01:38:04.396Z,25.1
2019-02-06T01:38:53.906Z,25.1
2019-02-06T01:39:47.124Z,24.9
2019-02-06T01:40:35.443Z,24.9
2019-02-06T01:41:25.263Z,24.9
2019-02-06T01:42:15.536Z,24.8
2019-02-06T01:43:04.784Z,24.8
2019-02-06T01:43:54.798Z,24.8
2019-02-06T01:44:45.526Z,24.6
2019-02-06T01:45:36.836Z,24.6
2019-02-06T01:46:25.551Z,24.4
2019-02-06T01:47:16.069Z,24.4
2019-02-06T01:48:04.857Z,24.4
2019-02-06T01:48:58.723Z,24.4
2019-02-06T01:49:48.604Z,24.4
2019-02-06T01:50:36.103Z,24.4
2019-02-06T01:51:26.191Z,24.4
2019-02-06T01:52:16.095Z,24.5
2019-02-06T01:53:05.176Z,24.6
2019-02-06T01:53:56.218Z,24.7
2019-02-06T01:54:48.185Z,24.8
2019-02-06T01:55:35.915Z,24.9
2019-02-06T01:56:26.333Z,25.1
2019-02-06T01:57:15.806Z,25.2
2019-02-06T01:58:07.410Z,25.3
2019-02-06T01:58:55.880Z,25.4
2019-02-06T01:59:46.330Z,25.4
2019-02-06T02:00:37.570Z,25.3
2019-02-06T02:01:26.902Z,25.3
2019-02-06T02:02:16.120Z,25.2
2019-02-06T02:03:07.125Z,25.1
2019-02-06T02:03:58.831Z,25
2019-02-06T02:04:46.951Z,24.9
2019-02-06T02:05:39.712Z,24.9
2019-02-06T02:06:26.774Z,24.9
2019-02-06T02:07:15.845Z,24.8
2019-02-06T02:08:06.309Z,24.7
2019-02-06T02:08:56.575Z,24.6
2019-02-06T02:09:48.516Z,24.6
2019-02-06T02:10:36.970Z,24.5
2019-02-06T02:11:27.028Z,24.4
2019-02-06T02:12:16.934Z,24.4
2019-02-06T02:13:09.777Z,24.4
2019-02-06T02:13:56.656Z,24.4
2019-02-06T02:14:47.289Z,24.4
2019-02-06T02:15:37.310Z,24.4
2019-02-06T02:16:27.491Z,24.5
2019-02-06T02:17:17.734Z,24.6
2019-02-06T02:18:06.736Z,24.6
2019-02-06T02:18:59.452Z,24.8
2019-02-06T02:19:47.912Z,24.9
2019-02-06T02:20:38.361Z,25
2019-02-06T02:21:27.491Z,25.1
2019-02-06T02:22:18.606Z,25.3
2019-02-06T02:23:08.139Z,25.4
2019-02-06T02:23:58.591Z,25.4
2019-02-06T02:24:48.781Z,25.3
2019-02-06T02:25:37.740Z,25.3
2019-02-06T02:26:27.532Z,25.2
2019-02-06T02:27:18.148Z,25.1
2019-02-06T02:28:11.206Z,25
2019-02-06T02:28:58.561Z,24.9
2019-02-06T02:29:48.611Z,24.9
2019-02-06T02:30:38.727Z,24.8
2019-02-06T02:31:33.036Z,24.8
2019-02-06T02:32:18.545Z,24.8
2019-02-06T02:33:08.034Z,24.6
2019-02-06T02:33:57.828Z,24.6
2019-02-06T02:34:48.410Z,24.6
2019-02-06T02:35:38.787Z,24.4
2019-02-06T02:36:28.593Z,24.4
2019-02-06T02:37:22.144Z,24.4
2019-02-06T02:38:09.898Z,24.4
2019-02-06T02:38:58.983Z,24.4
2019-02-06T02:39:49.483Z,24.4
2019-02-06T02:40:40.386Z,24.4
2019-02-06T02:41:29.454Z,24.6
2019-02-06T02:42:18.637Z,24.6
2019-02-06T02:43:10.084Z,24.7
2019-02-06T02:43:59.912Z,24.8
2019-02-06T02:44:49.679Z,24.9
2019-02-06T02:45:39.688Z,25.1
2019-02-06T02:46:32.527Z,25.2
2019-02-06T02:47:20.277Z,25.3
2019-02-06T02:48:10.247Z,25.4
2019-02-06T02:49:00.469Z,25.4
2019-02-06T02:49:49.744Z,25.3
2019-02-06T02:50:39.584Z,25.3
2019-02-06T02:51:30.514Z,25.1
2019-02-06T02:52:20.913Z,25.1
2019-02-06T02:53:10.090Z,25
2019-02-06T02:54:00.419Z,24.9
2019-02-06T02:54:50.694Z,24.9
2019-02-06T02:55:44.025Z,24.8
2019-02-06T02:56:30.921Z,24.8
2019-02-06T02:57:20.577Z,24.8
2019-02-06T02:58:10.493Z,24.6
2019-02-06T02:59:00.726Z,24.6
2019-02-06T02:59:50.202Z,24.5
2019-02-06T03:00:40.562Z,24.4
2019-02-06T03:01:32.463Z,24.4
2019-02-06T03:02:21.246Z,24.4
2019-02-06T03:03:10.721Z,24.4
2019-02-06T03:04:00.947Z,24.4
2019-02-06T03:04:53.548Z,24.4
2019-02-06T03:08:24.643Z,24.7
2019-02-06T03:09:13.223Z,24.8
2019-02-06T03:10:03.698Z,24.9
2019-02-06T03:10:52.771Z,25.1
2019-02-06T03:11:44.583Z,25.3
2019-02-06T03:12:33.100Z,25.4
2019-02-06T03:13:22.923Z,25.4
2019-02-06T03:14:13.575Z,25.3
2019-02-06T03:15:03.898Z,25.3
2019-02-06T03:15:53.973Z,25.2
2019-02-06T03:16:43.802Z,25.1
2019-02-06T03:17:36.688Z,25
2019-02-06T03:18:22.998Z,24.9
2019-02-06T03:19:14.220Z,24.9
2019-02-06T03:20:04.281Z,24.8
2019-02-06T03:20:54.925Z,24.8
2019-02-06T03:21:44.076Z,24.7
2019-02-06T03:22:37.994Z,24.6
2019-02-06T03:23:24.749Z,24.6
2019-02-06T03:24:14.048Z,24.5
2019-02-06T03:25:04.660Z,24.4
2019-02-06T03:25:54.440Z,24.4
2019-02-06T03:26:46.986Z,24.4
2019-02-06T03:27:34.774Z,24.4
2019-02-06T03:28:24.545Z,24.4
2019-02-06T03:29:14.027Z,24.4
2019-02-06T03:30:04.019Z,24.5
2019-02-06T03:30:54.674Z,24.6
2019-02-06T03:31:44.880Z,24.6
2019-02-06T03:32:34.878Z,24.7
2019-02-06T03:33:25.863Z,24.8
2019-02-06T03:34:14.749Z,24.9
2019-02-06T03:35:05.019Z,25.1
2019-02-06T03:35:58.157Z,25.3
2019-02-06T03:36:48.373Z,25.4
2019-02-06T03:37:35.421Z,25.4
2019-02-06T03:38:25.285Z,25.4
2019-02-06T03:39:15.344Z,25.4
2019-02-06T03:40:05.334Z,25.3
2019-02-06T03:40:55.166Z,25.3
2019-02-06T03:41:47.553Z,25.1
2019-02-06T03:42:34.991Z,25.1
2019-02-06T03:43:25.988Z,25
2019-02-06T03:44:15.480Z,24.9
2019-02-06T03:45:07.024Z,24.9
2019-02-06T03:45:55.833Z,24.8
2019-02-06T03:46:46.230Z,24.7
2019-02-06T03:47:36.546Z,24.6
2019-02-06T03:48:26.205Z,24.6
2019-02-06T03:49:15.263Z,24.5
2019-02-06T03:50:06.162Z,24.4
2019-02-06T03:50:58.565Z,24.4
2019-02-06T03:51:46.637Z,24.4
2019-02-06T03:52:35.993Z,24.4
2019-02-06T03:53:26.026Z,24.4
2019-02-06T03:54:16.600Z,24.4
2019-02-06T03:55:06.463Z,24.5
2019-02-06T03:55:56.483Z,24.6
2019-02-06T03:56:46.909Z,24.7
2019-02-06T03:57:36.893Z,24.8
2019-02-06T03:58:26.092Z,24.9
2019-02-06T03:59:16.982Z,25
2019-02-06T04:00:10.063Z,25.2
2019-02-06T04:00:56.798Z,25.3
2019-02-06T04:01:46.855Z,25.4
2019-02-06T04:02:36.905Z,25.4
2019-02-06T04:03:27.277Z,25.4
2019-02-06T04:04:17.027Z,25.4
2019-02-06T04:05:07.066Z,25.3
2019-02-06T04:05:58.955Z,25.2
2019-02-06T04:07:08.865Z,25.1
2019-02-06T04:07:36.989Z,25
2019-02-06T04:08:27.069Z,25
2019-02-06T04:09:18.922Z,24.9
2019-02-06T04:10:07.119Z,24.9
2019-02-06T04:10:57.259Z,24.8
2019-02-06T04:11:47.969Z,24.8
2019-02-06T04:12:37.422Z,24.6
2019-02-06T04:13:27.704Z,24.6
2019-02-06T04:14:17.540Z,24.6
2019-02-06T04:15:11.009Z,24.5
2019-02-06T04:15:58.284Z,24.4
2019-02-06T04:16:48.356Z,24.5
2019-02-06T04:17:36.316Z,24.4
2019-02-06T04:18:27.527Z,24.4
2019-02-06T04:19:17.587Z,24.5
2019-02-06T04:20:07.763Z,24.6
2019-02-06T04:20:58.705Z,24.6
2019-02-06T04:21:48.671Z,24.6
2019-02-06T04:22:37.821Z,24.8
2019-02-06T04:23:28.426Z,24.8
2019-02-06T04:24:21.211Z,24.9
2019-02-06T04:25:08.103Z,25.1
2019-02-06T04:25:58.869Z,25.3
2019-02-06T04:26:48.894Z,25.3
2019-02-06T04:27:39.706Z,25.3
2019-02-06T04:28:28.738Z,25.3
2019-02-06T04:29:18.815Z,25.3
2019-02-06T04:30:09.408Z,25.3
2019-02-06T04:30:59.339Z,25.3
2019-02-06T04:31:49.057Z,25.3
2019-02-06T04:32:38.545Z,25.3
2019-02-06T04:33:31.399Z,25.3
2019-02-06T06:06:21.546Z,24.3
2019-02-06T06:07:12.727Z,24.4
2019-02-06T06:08:05.095Z,24.4
2019-02-06T06:08:52.122Z,24.5
2019-02-06T06:09:42.409Z,24.5
2019-02-06T06:10:33.041Z,24.6
2019-02-06T06:11:23.379Z,24.7
2019-02-06T06:12:13.404Z,24.8
2019-02-06T06:13:02.595Z,24.9
2019-02-06T06:13:53.845Z,25
2019-02-06T06:14:43.539Z,25.1
2019-02-06T06:15:33.044Z,25.3
2019-02-06T06:16:23.429Z,25.3
2019-02-06T06:17:14.896Z,25.4
2019-02-06T06:18:03.502Z,25.5
2019-02-06T06:18:54.083Z,25.4
2019-02-06T06:19:43.879Z,25.4
2019-02-06T06:20:33.370Z,25.3
2019-02-06T06:21:23.669Z,25.2
2019-02-06T06:22:13.763Z,25.1
2019-02-06T06:23:06.186Z,24.9
2019-02-06T06:23:53.848Z,24.9
2019-02-06T06:24:43.628Z,24.8
2019-02-06T06:25:34.357Z,24.7
2019-02-06T06:26:24.037Z,24.7
2019-02-06T06:27:14.388Z,24.6
2019-02-06T06:28:04.727Z,24.5
2019-02-06T06:28:55.296Z,24.4
2019-02-06T06:29:44.606Z,24.3
2019-02-06T06:30:34.269Z,24.4
2019-02-06T06:31:24.419Z,24.4
2019-02-06T06:32:17.057Z,24.4
2019-02-06T06:33:05.150Z,24.5
2019-02-06T06:33:54.349Z,24.6
2019-02-06T06:34:44.100Z,24.7
2019-02-06T06:35:34.118Z,24.8
2019-02-06T06:36:24.721Z,24.8
2019-02-06T06:37:15.250Z,24.9
2019-02-06T06:38:10.350Z,25.1
2019-02-06T06:38:55.290Z,25.2
2019-02-06T06:39:45.523Z,25.3
2019-02-06T06:40:34.209Z,25.4
2019-02-06T06:41:25.507Z,25.5
2019-02-06T06:42:14.920Z,25.6
2019-02-06T06:43:05.606Z,25.4
2019-02-06T06:43:55.532Z,25.4
2019-02-06T06:44:45.037Z,25.3
2019-02-06T06:45:35.109Z,25.1
2019-02-06T06:46:24.591Z,25.1
2019-02-06T06:47:18.142Z,24.9
2019-02-06T06:48:05.562Z,24.9
2019-02-06T06:48:55.327Z,24.8
2019-02-06T06:49:45.692Z,24.8
2019-02-06T06:50:37.136Z,24.7
2019-02-06T06:51:26.384Z,24.6
2019-02-06T06:52:15.958Z,24.5
2019-02-06T06:53:06.412Z,24.4
2019-02-06T06:53:55.644Z,24.4
2019-02-06T06:54:46.301Z,24.3
2019-02-06T06:55:39.276Z,24.3
2019-02-06T06:56:27.564Z,24.2
2019-02-06T06:57:18.769Z,24.1
2019-02-06T06:58:06.342Z,24.1
2019-02-06T06:58:56.686Z,24.1
2019-02-06T06:59:46.386Z,24.1
2019-02-06T07:00:35.851Z,24.2
2019-02-06T07:01:26.036Z,24.3
2019-02-06T07:02:17.691Z,24.3
2019-02-06T07:03:06.218Z,24.4
2019-02-06T07:03:56.676Z,24.3
2019-02-06T07:06:22.655Z,24.1
2019-02-06T07:07:12.368Z,24.1
2019-02-06T07:08:18.589Z,24
2019-02-06T07:08:52.745Z,23.9
2019-02-06T07:09:43.183Z,23.9
2019-02-06T07:10:33.488Z,23.8
2019-02-06T07:11:24.958Z,23.8
2019-02-06T07:12:13.355Z,23.8
2019-02-06T07:13:02.875Z,23.8
2019-02-06T07:13:56.043Z,23.9
2019-02-06T07:14:43.485Z,23.8
2019-02-06T07:15:33.493Z,23.8
2019-02-06T07:16:22.992Z,23.8
2019-02-06T07:17:14.578Z,23.7
2019-02-06T07:18:03.192Z,23.6
2019-02-06T07:18:53.988Z,23.6
2019-02-06T07:19:43.913Z,23.6
2019-02-06T07:20:36.192Z,23.8
2019-02-06T07:21:23.337Z,23.8
2019-02-06T07:22:14.222Z,23.9
2019-02-06T07:23:02.933Z,24
2019-02-06T07:23:53.514Z,24
2019-02-06T07:24:43.834Z,24.1
2019-02-06T07:25:32.842Z,24.1
2019-02-06T07:26:25.077Z,24.2
2019-02-06T07:27:14.047Z,24.3
2019-02-06T07:28:04.479Z,24.3
2019-02-06T07:28:53.331Z,24.4
2019-02-06T07:29:46.439Z,24.5
2019-02-06T07:30:34.331Z,24.6
2019-02-06T07:31:24.981Z,24.6
2019-02-06T07:32:14.671Z,24.6
2019-02-06T07:33:03.688Z,24.6
2019-02-06T07:33:54.062Z,24.6
2019-02-06T07:34:44.571Z,24.6
2019-02-06T07:35:36.142Z,24.7
2019-02-06T07:36:23.837Z,24.6
2019-02-06T07:37:14.586Z,24.6
2019-02-06T07:38:04.521Z,24.6
2019-02-06T07:38:55.961Z,24.5
2019-02-06T07:39:44.461Z,24.4
2019-02-06T07:40:34.736Z,24.3
2019-02-06T07:41:25.768Z,24.3
2019-02-06T07:42:15.320Z,24.1
2019-02-06T07:43:05.584Z,24.1
2019-02-06T07:43:54.618Z,24.1
2019-02-06T07:44:47.965Z,24
2019-02-06T07:45:35.583Z,23.9
2019-02-06T07:46:25.970Z,23.9
2019-02-06T07:47:15.955Z,23.9
2019-02-06T07:48:05.109Z,23.9
2019-02-06T07:48:55.570Z,23.8
2019-02-06T07:49:45.875Z,23.8
2019-02-06T07:50:36.738Z,23.7
2019-02-06T07:51:26.063Z,23.7
2019-02-06T07:52:15.585Z,23.6
2019-02-06T07:53:05.995Z,23.6
2019-02-06T07:53:58.734Z,23.8
2019-02-06T07:54:45.955Z,23.8
2019-02-06T07:55:35.751Z,23.8
2019-02-06T07:56:25.862Z,23.9
2019-02-06T07:57:15.831Z,23.9
2019-02-06T07:58:06.238Z,23.9
2019-02-06T07:58:57.677Z,24
2019-02-06T07:59:48.732Z,24.1
2019-02-06T08:00:36.207Z,24.1
2019-02-06T08:01:26.347Z,24.2
2019-02-06T08:02:16.289Z,24.3
2019-02-06T08:03:07.264Z,24.3
2019-02-06T08:03:56.064Z,24.2
2019-02-06T08:04:48.874Z,24.2
2019-02-06T08:05:37.406Z,24.1
2019-02-06T08:06:26.489Z,24
2019-02-06T08:07:16.813Z,24
2019-02-06T08:08:06.670Z,23.9
2019-02-06T08:08:58.997Z,23.9
2019-02-06T08:09:46.697Z,23.8
2019-02-06T08:10:37.062Z,23.8
2019-02-06T08:11:27.130Z,23.8
2019-02-06T08:12:17.732Z,23.8
2019-02-06T08:13:06.540Z,23.7
2019-02-06T08:13:57.262Z,23.7
2019-02-06T08:14:48.753Z,23.6
2019-02-06T08:15:37.373Z,23.6
2019-02-06T08:16:27.467Z,23.5
2019-02-06T08:17:16.662Z,23.5
2019-02-06T08:18:10.236Z,23.4
2019-02-06T08:18:57.914Z,23.4
2019-02-06T08:19:47.835Z,23.4
2019-02-06T08:20:37.197Z,23.6
2019-02-06T08:21:27.259Z,23.6
2019-02-06T08:22:17.990Z,23.6
2019-02-06T08:23:07.669Z,23.7
2019-02-06T08:24:00.101Z,23.8
2019-02-06T08:24:48.306Z,23.8
2019-02-06T08:25:37.956Z,23.9
2019-02-06T08:26:27.631Z,23.9
2019-02-06T08:27:20.114Z,24
2019-02-06T08:28:07.781Z,24.1
2019-02-06T08:28:57.775Z,24.2
2019-02-06T08:29:48.656Z,24.2
2019-02-06T08:30:38.318Z,24.1
2019-02-06T08:31:29.156Z,24.1
2019-02-06T08:32:18.578Z,24
2019-02-06T08:33:10.119Z,23.9
2019-02-06T08:33:58.135Z,23.9
2019-02-06T08:34:48.741Z,23.9
2019-02-06T08:35:39.086Z,23.8
2019-02-06T08:36:29.833Z,23.8
2019-02-06T08:37:18.982Z,23.8
2019-02-06T08:38:09.621Z,23.7
2019-02-06T08:39:02.645Z,23.7
2019-02-06T08:39:49.615Z,23.6
2019-02-06T08:40:39.553Z,23.6
2019-02-06T08:41:28.633Z,23.5
2019-02-06T08:42:21.313Z,23.4
2019-02-06T08:43:09.628Z,23.4
2019-02-06T08:44:02.453Z,23.4
2019-02-06T08:44:49.812Z,23.4
2019-02-06T08:45:40.818Z,23.3
2019-02-06T08:46:29.780Z,23.3
2019-02-06T08:47:19.719Z,23.4
2019-02-06T08:48:10.173Z,23.5
2019-02-06T08:48:59.989Z,23.6
2019-02-06T08:49:50.232Z,23.6
2019-02-06T08:50:40.082Z,23.6
2019-02-06T08:51:31.947Z,23.7
2019-02-06T08:52:19.987Z,23.8
2019-02-06T08:53:10.395Z,23.8
2019-02-06T08:54:00.182Z,23.9
2019-02-06T08:54:50.523Z,24.1
2019-02-06T08:55:39.907Z,24.2
2019-02-06T08:56:29.994Z,24.3
2019-02-06T08:57:22.115Z,24.3
2019-02-06T08:58:10.402Z,24.3
2019-02-06T08:59:00.667Z,24.3
2019-02-06T08:59:50.194Z,24.1
2019-02-06T09:00:43.318Z,24.1
2019-02-06T09:01:30.315Z,24
2019-02-06T09:02:19.897Z,23.9
2019-02-06T09:03:10.719Z,23.9
2019-02-06T09:04:00.481Z,23.8
2019-02-06T09:05:03.194Z,23.8
2019-02-06T09:05:40.127Z,23.8
2019-02-06T09:06:32.779Z,23.7
2019-02-06T09:07:20.831Z,23.6
2019-02-06T09:08:10.866Z,23.6
2019-02-06T09:09:06.674Z,23.5
2019-02-06T09:09:51.867Z,23.4
2019-02-06T09:10:41.551Z,23.4
2019-02-06T09:11:31.024Z,23.4
2019-02-06T09:12:20.687Z,23.5
2019-02-06T09:13:11.721Z,23.6
2019-02-06T09:14:01.754Z,23.6
2019-02-06T09:14:50.978Z,23.6
2019-02-06T09:15:44.053Z,23.7
2019-02-06T09:16:31.938Z,23.8
2019-02-06T09:17:22.059Z,23.9
2019-02-06T09:18:12.021Z,23.9
2019-02-06T09:19:02.406Z,24.1
2019-02-06T09:19:51.963Z,24.2
2019-02-06T09:20:41.898Z,24.3
2019-02-06T09:21:32.840Z,24.4
2019-02-06T09:22:22.589Z,24.4
2019-02-06T09:23:12.148Z,24.4
2019-02-06T09:24:02.326Z,24.3
2019-02-06T09:24:55.323Z,24.3
2019-02-06T09:25:42.534Z,24.2
2019-02-06T09:26:38.760Z,24.1
2019-02-06T09:27:22.420Z,23.9
2019-02-06T09:28:12.729Z,23.9
2019-02-06T09:29:02.338Z,23.9
2019-02-06T09:29:53.100Z,23.8
2019-02-06T09:30:44.674Z,23.8
2019-02-06T09:31:32.400Z,23.7
2019-02-06T09:32:22.831Z,23.7
2019-02-06T09:33:12.532Z,23.6
2019-02-06T09:34:03.495Z,23.6
2019-02-06T09:34:52.375Z,23.5
2019-02-06T09:35:42.733Z,23.5
2019-02-06T09:36:33.433Z,23.4
2019-02-06T09:37:23.107Z,23.6
2019-02-06T09:38:13.110Z,23.6
2019-02-06T09:39:15.852Z,23.6
2019-02-06T09:39:56.370Z,23.7
2019-02-06T09:40:43.340Z,23.8
2019-02-06T09:41:33.822Z,23.8
2019-02-06T09:42:23.569Z,23.9
2019-02-06T09:43:13.222Z,23.9
2019-02-06T09:44:02.979Z,24.1
2019-02-06T09:44:54.150Z,24.1
2019-02-06T09:45:45.161Z,24.1
2019-02-06T09:46:33.442Z,24
2019-02-06T09:47:23.849Z,23.9
2019-02-06T09:48:13.947Z,23.9
2019-02-06T09:49:06.303Z,23.8
2019-02-06T09:49:57.084Z,23.8
2019-02-06T09:50:43.467Z,23.7
2019-02-06T09:51:34.467Z,23.6
2019-02-06T09:52:31.386Z,23.6
2019-02-06T09:53:13.611Z,23.6
2019-02-06T09:54:04.551Z,23.6
2019-02-06T09:54:56.326Z,23.6
2019-02-06T09:55:43.682Z,23.6
2019-02-06T09:56:34.236Z,23.6
2019-02-06T09:57:24.481Z,23.6
2019-02-06T09:58:15.336Z,23.6
2019-02-06T09:59:04.948Z,23.6
2019-02-06T09:59:54.253Z,23.6
2019-02-06T10:00:45.221Z,23.6
2019-02-06T10:01:34.730Z,23.6
2019-02-06T10:02:24.255Z,23.6
2019-02-06T10:03:14.090Z,23.6
2019-02-06T10:04:06.991Z,23.6
2019-02-06T10:04:55.398Z,23.6
2019-02-06T10:07:22.530Z,23.6
2019-02-06T10:08:12.800Z,23.6
2019-02-06T10:09:02.100Z,23.5
2019-02-06T10:09:58.527Z,23.6
2019-02-06T10:10:42.638Z,23.5
2019-02-06T10:11:32.718Z,23.5
2019-02-06T10:12:22.508Z,23.5
2019-02-06T10:13:17.195Z,23.5
2019-02-06T10:14:03.910Z,23.4
2019-02-06T10:14:52.942Z,23.4
2019-02-06T10:15:43.320Z,23.4
2019-02-06T10:16:33.200Z,23.4
2019-02-06T10:17:22.907Z,23.4
2019-02-06T10:18:13.487Z,23.3
2019-02-06T10:19:05.640Z,23.3
2019-02-06T10:19:53.056Z,23.3
2019-02-06T10:20:43.371Z,23.3
2019-02-06T10:21:33.579Z,23.3
2019-02-06T10:22:23.467Z,23.2
2019-02-06T10:23:13.607Z,23.2
2019-02-06T10:24:02.783Z,23.1
2019-02-06T10:24:54.197Z,23.1
2019-02-06T10:25:43.627Z,23.1
2019-02-06T10:26:33.754Z,23.1
2019-02-06T10:27:27.072Z,23
2019-02-06T10:28:15.899Z,23
2019-02-06T10:29:03.462Z,23
2019-02-06T10:29:53.594Z,22.9
2019-02-06T10:30:44.319Z,22.9
2019-02-06T10:31:36.637Z,22.9
2019-02-06T10:32:24.171Z,22.9
2019-02-06T10:33:14.536Z,22.9
2019-02-06T10:34:05.131Z,22.8
2019-02-06T10:34:53.871Z,22.8
2019-02-06T10:35:44.416Z,22.8
2019-02-06T10:36:34.331Z,22.8
2019-02-06T10:37:29.677Z,22.7
2019-02-06T10:38:14.307Z,22.7
2019-02-06T10:39:04.356Z,22.6
2019-02-06T10:39:54.678Z,22.6
2019-02-06T10:40:45.021Z,22.6
2019-02-06T10:41:34.338Z,22.6
2019-02-06T10:42:24.610Z,22.6
2019-02-06T10:43:17.673Z,22.6
2019-02-06T10:44:04.950Z,22.5
2019-02-06T10:44:55.088Z,22.5
2019-02-06T10:45:45.348Z,22.4
2019-02-06T10:46:34.938Z,22.4
2019-02-06T10:47:25.480Z,22.4
2019-02-06T10:48:15.068Z,22.4
2019-02-06T10:49:05.060Z,22.4
2019-02-06T10:49:55.688Z,22.3
2019-02-06T10:50:45.563Z,22.3
2019-02-06T10:51:34.763Z,22.3
2019-02-06T10:52:28.173Z,22.3
2019-02-06T10:53:15.399Z,22.3
2019-02-06T10:54:05.971Z,22.2
2019-02-06T10:54:56.047Z,22.2
2019-02-06T10:55:44.970Z,22.2
2019-02-06T10:56:35.590Z,22.1
2019-02-06T10:57:25.485Z,22.1
2019-02-06T10:58:16.898Z,22.1
2019-02-06T10:59:06.325Z,22.1
2019-02-06T10:59:55.925Z,22.1
2019-02-06T11:00:46.566Z,22
2019-02-06T11:01:38.480Z,22
2019-02-06T11:02:25.777Z,22
2019-02-06T11:03:15.350Z,21.9
2019-02-06T11:04:06.035Z,21.9
2019-02-06T11:04:56.962Z,21.9
2019-02-06T11:05:46.032Z,21.9
2019-02-06T11:06:36.047Z,21.9
2019-02-06T11:07:27.927Z,21.9
2019-02-06T11:08:15.915Z,21.8
2019-02-06T11:09:06.502Z,21.8
2019-02-06T11:09:56.507Z,21.8
2019-02-06T11:10:48.309Z,21.8
2019-02-06T11:11:37.245Z,21.8
2019-02-06T11:12:30.195Z,21.8
2019-02-06T11:13:17.095Z,21.7
2019-02-06T11:14:07.644Z,21.7
2019-02-06T11:14:57.404Z,21.6
2019-02-06T11:15:47.302Z,21.6
2019-02-06T11:16:39.721Z,21.6
2019-02-06T11:17:27.866Z,21.6
2019-02-06T11:18:17.081Z,21.6
2019-02-06T11:19:07.706Z,21.6
2019-02-06T11:19:58.064Z,21.6
2019-02-06T11:20:47.356Z,21.5
2019-02-06T11:21:37.573Z,21.5
2019-02-06T11:22:27.876Z,21.5
2019-02-06T11:23:18.548Z,21.4
2019-02-06T11:24:06.745Z,21.4
2019-02-06T11:24:57.363Z,21.4
2019-02-06T11:25:50.782Z,21.4
2019-02-06T11:26:38.235Z,21.4
2019-02-06T11:27:27.990Z,21.4
2019-02-06T11:28:17.003Z,21.4
2019-02-06T11:29:08.615Z,21.3
2019-02-06T11:29:58.058Z,21.3
2019-02-06T11:30:48.258Z,21.3
2019-02-06T11:31:38.950Z,21.3
2019-02-06T11:32:27.824Z,21.3
2019-02-06T11:33:18.668Z,21.3
2019-02-06T11:34:08.463Z,21.3
2019-02-06T11:35:03.470Z,21.3
2019-02-06T11:35:48.648Z,21.2
2019-02-06T11:36:38.418Z,21.2
2019-02-06T11:37:28.938Z,21.2
2019-02-06T11:40:50.187Z,21.1
2019-02-06T11:41:38.413Z,21.1
2019-02-06T11:42:28.244Z,21.1
2019-02-06T11:43:18.545Z,21.1
2019-02-06T11:44:23.372Z,21.1
2019-02-06T11:44:59.767Z,21.1
2019-02-06T11:45:49.354Z,21
2019-02-06T11:46:39.332Z,21
2019-02-06T11:47:29.689Z,21
2019-02-06T11:48:19.699Z,20.9
2019-02-06T11:49:09.519Z,20.9
2019-02-06T11:50:01.802Z,20.9
2019-02-06T11:50:49.447Z,20.9
2019-02-06T11:51:39.959Z,20.9
2019-02-06T11:52:29.982Z,20.9
2019-02-06T11:53:22.228Z,20.9
2019-02-06T11:54:10.136Z,20.9
2019-02-06T11:55:00.024Z,20.9
2019-02-06T11:55:50.234Z,20.8
2019-02-06T11:56:39.746Z,20.8
2019-02-06T11:57:31.291Z,20.8
2019-02-06T11:58:19.874Z,20.8
2019-02-06T11:59:12.863Z,20.8
2019-02-06T12:00:00.328Z,20.8
2019-02-06T12:00:53.362Z,20.8
2019-02-06T12:01:40.121Z,20.8
2019-02-06T12:02:42.792Z,20.8
2019-02-06T12:03:22.930Z,20.7
2019-02-06T12:04:10.326Z,20.7
2019-02-06T12:05:01.776Z,20.7
2019-02-06T12:07:21.220Z,20.7
2019-02-06T12:08:16.483Z,20.7
2019-02-06T12:09:01.610Z,20.6
2019-02-06T12:09:51.493Z,20.6
2019-02-06T12:10:44.976Z,20.6
2019-02-06T12:11:32.648Z,20.6
2019-02-06T12:12:22.383Z,20.6
2019-02-06T12:13:12.735Z,20.6
2019-02-06T12:14:04.065Z,20.6
2019-02-06T12:14:52.277Z,20.6
2019-02-06T12:15:44.900Z,20.6
2019-02-06T12:16:35.599Z,20.6
2019-02-06T12:17:23.291Z,20.5
2019-02-06T12:18:12.757Z,20.5
2019-02-06T12:19:17.773Z,20.5
2019-02-06T12:19:55.902Z,20.5
2019-02-06T12:20:42.987Z,20.5
2019-02-06T12:21:33.072Z,20.5
2019-02-06T12:22:23.082Z,20.4
2019-02-06T12:23:13.699Z,20.4
2019-02-06T12:24:03.759Z,20.4
2019-02-06T12:24:52.984Z,20.4
2019-02-06T12:25:45.797Z,20.4
2019-02-06T12:26:33.649Z,20.4
2019-02-06T12:27:23.169Z,20.4
2019-02-06T12:28:14.044Z,20.4
2019-02-06T12:29:04.915Z,20.4
2019-02-06T12:29:54.421Z,20.4
2019-02-06T12:30:44.652Z,20.4
2019-02-06T12:31:34.016Z,20.4
2019-02-06T12:32:24.604Z,20.4
2019-02-06T12:33:14.124Z,20.3
2019-02-06T12:34:04.721Z,20.3
2019-02-06T12:34:57.329Z,20.3
2019-02-06T12:35:44.119Z,20.3
2019-02-06T12:36:34.341Z,20.3
2019-02-06T12:37:24.111Z,20.3
2019-02-06T12:38:14.073Z,20.3
2019-02-06T12:39:05.091Z,20.3
2019-02-06T12:39:54.918Z,20.3
2019-02-06T12:40:46.249Z,20.3
2019-02-06T12:41:34.966Z,20.3
2019-02-06T12:42:24.543Z,20.3
2019-02-06T12:43:16.938Z,20.2
2019-02-06T12:44:03.943Z,20.2
2019-02-06T12:44:53.983Z,20.2
2019-02-06T12:45:44.230Z,20.2
2019-02-06T12:46:37.453Z,20.2
2019-02-06T12:47:27.134Z,20.2
2019-02-06T12:48:14.578Z,20.2
2019-02-06T12:49:04.176Z,20.2
2019-02-06T12:49:55.085Z,20.1